sensor_id;sensor_type;location;lat;lon;timestamp;pressure;altitude;pressure_sealevel;temperature;humidity
45247;BME280;31529;51.158;7.354;2022-12-24T00:00:28;96989.66;;;11.53;87.07
45247;BME280;31529;51.158;7.354;2022-12-24T00:00:59;96986.22;;;11.61;86.68
45247;BME280;31529;51.158;7.354;2022-12-24T00:01:30;96995.50;;;11.64;86.26
45247;BME280;31529;51.158;7.354;2022-12-24T00:02:01;96996.59;;;11.63;86.43
45247;BME280;31529;51.158;7.354;2022-12-24T00:02:32;96999.25;;;11.63;86.64
45247;BME280;31529;51.158;7.354;2022-12-24T00:03:03;96988.25;;;11.64;86.25
45247;BME280;31529;51.158;7.354;2022-12-24T00:03:37;96999.75;;;11.65;86.11
45247;BME280;31529;51.158;7.354;2022-12-24T00:04:08;96995.19;;;11.65;85.34
45247;BME280;31529;51.158;7.354;2022-12-24T00:04:40;96990.59;;;11.57;85.55
45247;BME280;31529;51.158;7.354;2022-12-24T00:05:11;97000.03;;;11.55;85.69
45247;BME280;31529;51.158;7.354;2022-12-24T00:05:42;96998.16;;;11.55;86.25
45247;BME280;31529;51.158;7.354;2022-12-24T00:06:17;97001.63;;;11.56;86.19
45247;BME280;31529;51.158;7.354;2022-12-24T00:06:50;96995.94;;;11.57;86.34
45247;BME280;31529;51.158;7.354;2022-12-24T00:07:21;97000.50;;;11.57;86.04
45247;BME280;31529;51.158;7.354;2022-12-24T00:07:52;96993.28;;;11.57;85.92
45247;BME280;31529;51.158;7.354;2022-12-24T00:08:23;96997.06;;;11.56;85.68
45247;BME280;31529;51.158;7.354;2022-12-24T00:08:54;96995.94;;;11.57;86.30
45247;BME280;31529;51.158;7.354;2022-12-24T00:09:25;96897.50;;;10.81;86.49
45247;BME280;31529;51.158;7.354;2022-12-24T00:09:57;97004.31;;;11.56;86.08
45247;BME280;31529;51.158;7.354;2022-12-24T00:10:28;97003.97;;;11.57;86.19
45247;BME280;31529;51.158;7.354;2022-12-24T00:10:59;97007.28;;;11.54;86.00
45247;BME280;31529;51.158;7.354;2022-12-24T00:11:30;96999.91;;;11.60;85.94
45247;BME280;31529;51.158;7.354;2022-12-24T00:12:01;97008.22;;;11.58;85.80
45247;BME280;31529;51.158;7.354;2022-12-24T00:12:32;97006.03;;;11.60;86.08
45247;BME280;31529;51.158;7.354;2022-12-24T00:13:03;97008.38;;;11.62;85.77
45247;BME280;31529;51.158;7.354;2022-12-24T00:13:34;97008.06;;;11.63;85.92
45247;BME280;31529;51.158;7.354;2022-12-24T00:14:05;97011.84;;;11.62;85.75
45247;BME280;31529;51.158;7.354;2022-12-24T00:14:36;97008.06;;;11.63;85.88
45247;BME280;31529;51.158;7.354;2022-12-24T00:15:08;97010.59;;;11.60;85.94
45247;BME280;31529;51.158;7.354;2022-12-24T00:15:39;97014.50;;;11.62;85.85
45247;BME280;31529;51.158;7.354;2022-12-24T00:16:10;97019.53;;;11.64;85.25
45247;BME280;31529;51.158;7.354;2022-12-24T00:16:41;97008.38;;;11.62;85.68
45247;BME280;31529;51.158;7.354;2022-12-24T00:17:12;97022.34;;;11.59;86.22
45247;BME280;31529;51.158;7.354;2022-12-24T00:17:43;97022.53;;;11.62;85.84
45247;BME280;31529;51.158;7.354;2022-12-24T00:18:15;97018.13;;;11.66;85.64
45247;BME280;31529;51.158;7.354;2022-12-24T00:18:46;97025.34;;;11.57;85.79
45247;BME280;31529;51.158;7.354;2022-12-24T00:19:17;97027.56;;;11.64;86.36
45247;BME280;31529;51.158;7.354;2022-12-24T00:19:48;97022.69;;;11.66;85.41
45247;BME280;31529;51.158;7.354;2022-12-24T00:20:19;97012.31;;;11.64;85.51
45247;BME280;31529;51.158;7.354;2022-12-24T00:20:50;97016.06;;;11.55;85.43
45247;BME280;31529;51.158;7.354;2022-12-24T00:21:21;97020.16;;;11.52;85.56
45247;BME280;31529;51.158;7.354;2022-12-24T00:21:52;97023.78;;;11.56;85.99
45247;BME280;31529;51.158;7.354;2022-12-24T00:22:23;97018.44;;;11.56;85.94
45247;BME280;31529;51.158;7.354;2022-12-24T00:22:54;97018.13;;;11.58;85.58
45247;BME280;31529;51.158;7.354;2022-12-24T00:23:25;96934.91;;;10.98;85.13
45247;BME280;31529;51.158;7.354;2022-12-24T00:23:56;97025.81;;;11.50;85.67
45247;BME280;31529;51.158;7.354;2022-12-24T00:24:28;97012.63;;;11.54;85.85
45247;BME280;31529;51.158;7.354;2022-12-24T00:24:59;97022.53;;;11.53;85.92
45247;BME280;31529;51.158;7.354;2022-12-24T00:25:30;97019.38;;;11.51;85.82
45247;BME280;31529;51.158;7.354;2022-12-24T00:26:01;97021.25;;;11.42;86.37
45247;BME280;31529;51.158;7.354;2022-12-24T00:26:32;97023.59;;;11.44;86.19
45247;BME280;31529;51.158;7.354;2022-12-24T00:27:04;97032.56;;;11.48;86.31
45247;BME280;31529;51.158;7.354;2022-12-24T00:27:35;97011.81;;;11.45;86.60
45247;BME280;31529;51.158;7.354;2022-12-24T00:28:06;97022.03;;;11.43;86.08
45247;BME280;31529;51.158;7.354;2022-12-24T00:28:38;97022.63;;;11.40;86.23
45247;BME280;31529;51.158;7.354;2022-12-24T00:29:10;97026.59;;;11.42;86.30
45247;BME280;31529;51.158;7.354;2022-12-24T00:29:41;97032.72;;;11.43;86.28
45247;BME280;31529;51.158;7.354;2022-12-24T00:30:12;97030.38;;;11.50;85.75
45247;BME280;31529;51.158;7.354;2022-12-24T00:30:43;97026.13;;;11.49;86.19
45247;BME280;31529;51.158;7.354;2022-12-24T00:31:15;97022.84;;;11.52;86.27
45247;BME280;31529;51.158;7.354;2022-12-24T00:31:48;97028.78;;;11.49;85.82
45247;BME280;31529;51.158;7.354;2022-12-24T00:32:19;97025.50;;;11.52;85.91
45247;BME280;31529;51.158;7.354;2022-12-24T00:32:50;97025.03;;;11.50;85.92
45247;BME280;31529;51.158;7.354;2022-12-24T00:33:21;97021.88;;;11.48;86.08
45247;BME280;31529;51.158;7.354;2022-12-24T00:33:52;97027.69;;;11.41;85.69
45247;BME280;31529;51.158;7.354;2022-12-24T00:34:23;97032.53;;;11.39;85.97
45247;BME280;31529;51.158;7.354;2022-12-24T00:34:55;97031.78;;;11.47;85.48
45247;BME280;31529;51.158;7.354;2022-12-24T00:35:26;97036.34;;;11.47;84.94
45247;BME280;31529;51.158;7.354;2022-12-24T00:35:57;97030.22;;;11.46;85.84
45247;BME280;31529;51.158;7.354;2022-12-24T00:36:28;97046.41;;;11.50;85.53
45247;BME280;31529;51.158;7.354;2022-12-24T00:36:59;97038.88;;;11.52;84.88
45247;BME280;31529;51.158;7.354;2022-12-24T00:37:30;97034.59;;;11.51;85.11
45247;BME280;31529;51.158;7.354;2022-12-24T00:38:02;97044.81;;;11.49;84.87
45247;BME280;31529;51.158;7.354;2022-12-24T00:38:33;97043.25;;;11.57;84.93
45247;BME280;31529;51.158;7.354;2022-12-24T00:39:05;97039.97;;;11.60;84.58
45247;BME280;31529;51.158;7.354;2022-12-24T00:39:36;97038.88;;;11.61;84.75
45247;BME280;31529;51.158;7.354;2022-12-24T00:40:07;97039.66;;;11.61;84.66
45247;BME280;31529;51.158;7.354;2022-12-24T00:40:38;97041.22;;;11.62;84.55
45247;BME280;31529;51.158;7.354;2022-12-24T00:41:10;97039.03;;;11.64;85.13
45247;BME280;31529;51.158;7.354;2022-12-24T00:41:53;97035.88;;;11.62;84.63
45247;BME280;31529;51.158;7.354;2022-12-24T00:42:24;97038.88;;;11.61;84.70
45247;BME280;31529;51.158;7.354;2022-12-24T00:42:56;97037.00;;;11.61;84.68
45247;BME280;31529;51.158;7.354;2022-12-24T00:43:28;97039.03;;;11.64;84.70
45247;BME280;31529;51.158;7.354;2022-12-24T00:44:00;97033.69;;;11.56;84.83
45247;BME280;31529;51.158;7.354;2022-12-24T00:44:35;97045.63;;;11.58;84.99
45247;BME280;31529;51.158;7.354;2022-12-24T00:45:06;97033.53;;;11.61;84.33
45247;BME280;31529;51.158;7.354;2022-12-24T00:45:38;97037.47;;;11.63;84.88
45247;BME280;31529;51.158;7.354;2022-12-24T00:46:08;97037.63;;;11.67;84.37
45247;BME280;31529;51.158;7.354;2022-12-24T00:46:40;97027.56;;;11.64;84.53
45247;BME280;31529;51.158;7.354;2022-12-24T00:47:11;97045.63;;;11.58;84.24
45247;BME280;31529;51.158;7.354;2022-12-24T00:47:43;97041.22;;;11.62;84.37
45247;BME280;31529;51.158;7.354;2022-12-24T00:48:14;97031.81;;;11.65;84.03
45247;BME280;31529;51.158;7.354;2022-12-24T00:48:46;97030.06;;;11.60;83.99
45247;BME280;31529;51.158;7.354;2022-12-24T00:49:17;97037.47;;;11.63;83.74
45247;BME280;31529;51.158;7.354;2022-12-24T00:49:48;97049.06;;;11.59;83.83
45247;BME280;31529;51.158;7.354;2022-12-24T00:50:19;97028.34;;;11.64;84.03
45247;BME280;31529;51.158;7.354;2022-12-24T00:50:50;97040.16;;;11.63;83.81
45247;BME280;31529;51.158;7.354;2022-12-24T00:51:21;97036.81;;;11.66;83.81
45247;BME280;31529;51.158;7.354;2022-12-24T00:51:53;97041.09;;;11.67;83.81
45247;BME280;31529;51.158;7.354;2022-12-24T00:52:24;97037.13;;;11.56;84.06
45247;BME280;31529;51.158;7.354;2022-12-24T00:52:56;97031.03;;;11.56;84.00
45247;BME280;31529;51.158;7.354;2022-12-24T00:53:27;97044.38;;;11.56;83.76
45247;BME280;31529;51.158;7.354;2022-12-24T00:53:58;97045.63;;;11.58;83.87
45247;BME280;31529;51.158;7.354;2022-12-24T00:54:29;97048.59;;;11.57;83.96
45247;BME280;31529;51.158;7.354;2022-12-24T00:55:00;97050.97;;;11.58;83.95
45247;BME280;31529;51.158;7.354;2022-12-24T00:55:32;97045.47;;;11.55;83.89
45247;BME280;31529;51.158;7.354;2022-12-24T00:56:03;97043.72;;;11.50;84.27
45247;BME280;31529;51.158;7.354;2022-12-24T00:56:35;97051.59;;;11.46;84.54
45247;BME280;31529;51.158;7.354;2022-12-24T00:57:06;97051.25;;;11.39;84.53
45247;BME280;31529;51.158;7.354;2022-12-24T00:57:37;97055.50;;;11.40;84.94
45247;BME280;31529;51.158;7.354;2022-12-24T00:58:08;97062.56;;;11.45;84.76
45247;BME280;31529;51.158;7.354;2022-12-24T00:58:39;97068.09;;;11.48;84.83
45247;BME280;31529;51.158;7.354;2022-12-24T00:59:10;97058.47;;;11.39;84.40
45247;BME280;31529;51.158;7.354;2022-12-24T00:59:41;97052.19;;;11.35;84.55
45247;BME280;31529;51.158;7.354;2022-12-24T01:00:12;97058.47;;;11.39;84.51
45247;BME280;31529;51.158;7.354;2022-12-24T01:00:45;97054.69;;;11.40;84.65
45247;BME280;31529;51.158;7.354;2022-12-24T01:01:16;97060.50;;;11.42;84.56
45247;BME280;31529;51.158;7.354;2022-12-24T01:01:47;97055.00;;;11.38;85.03
45247;BME280;31529;51.158;7.354;2022-12-24T01:02:18;97056.88;;;11.38;85.17
45247;BME280;31529;51.158;7.354;2022-12-24T01:02:49;97059.09;;;11.36;84.90
45247;BME280;31529;51.158;7.354;2022-12-24T01:03:21;97059.72;;;11.32;85.33
45247;BME280;31529;51.158;7.354;2022-12-24T01:03:52;97060.19;;;11.35;85.40
45247;BME280;31529;51.158;7.354;2022-12-24T01:04:43;97059.44;;;11.43;84.72
45247;BME280;31529;51.158;7.354;2022-12-24T01:05:33;97067.13;;;11.44;84.81
45247;BME280;31529;51.158;7.354;2022-12-24T01:06:05;97065.72;;;11.47;84.86
45247;BME280;31529;51.158;7.354;2022-12-24T01:06:38;97069.97;;;11.48;84.49
45247;BME280;31529;51.158;7.354;2022-12-24T01:07:09;97071.53;;;11.49;84.35
45247;BME280;31529;51.158;7.354;2022-12-24T01:07:41;97072.00;;;11.51;84.86
45247;BME280;31529;51.158;7.354;2022-12-24T01:08:13;97073.13;;;11.50;84.26
45247;BME280;31529;51.158;7.354;2022-12-24T01:08:44;97081.31;;;11.53;84.10
45247;BME280;31529;51.158;7.354;2022-12-24T01:09:16;97074.69;;;11.51;84.32
45247;BME280;31529;51.158;7.354;2022-12-24T01:09:47;97064.94;;;11.46;84.43
45247;BME280;31529;51.158;7.354;2022-12-24T01:10:18;97066.50;;;11.47;84.87
45247;BME280;31529;51.158;7.354;2022-12-24T01:10:49;97079.22;;;11.42;85.05
45247;BME280;31529;51.158;7.354;2022-12-24T01:11:20;97077.94;;;11.39;85.01
45247;BME280;31529;51.158;7.354;2022-12-24T01:11:51;97079.53;;;11.40;85.24
45247;BME280;31529;51.158;7.354;2022-12-24T01:12:23;97080.28;;;11.32;85.21
45247;BME280;31529;51.158;7.354;2022-12-24T01:12:54;97072.56;;;11.30;85.85
45247;BME280;31529;51.158;7.354;2022-12-24T01:13:26;97076.69;;;11.37;85.44
45247;BME280;31529;51.158;7.354;2022-12-24T01:13:57;97077.47;;;11.37;85.49
45247;BME280;31529;51.158;7.354;2022-12-24T01:14:28;97072.59;;;11.39;85.19
45247;BME280;31529;51.158;7.354;2022-12-24T01:14:59;97069.78;;;11.36;85.54
45247;BME280;31529;51.158;7.354;2022-12-24T01:15:30;97075.59;;;11.38;85.67
45247;BME280;31529;51.158;7.354;2022-12-24T01:16:02;97069.00;;;11.35;85.70
45247;BME280;31529;51.158;7.354;2022-12-24T01:16:34;97079.19;;;11.33;85.55
45247;BME280;31529;51.158;7.354;2022-12-24T01:17:05;97080.28;;;11.32;85.64
45247;BME280;31529;51.158;7.354;2022-12-24T01:17:36;97072.28;;;11.32;86.00
45247;BME280;31529;51.158;7.354;2022-12-24T01:18:07;97071.50;;;11.31;85.75
45247;BME280;31529;51.158;7.354;2022-12-24T01:18:38;97075.88;;;11.36;85.60
45247;BME280;31529;51.158;7.354;2022-12-24T01:19:09;97082.03;;;11.37;85.70
45247;BME280;31529;51.158;7.354;2022-12-24T01:19:41;97084.88;;;11.40;85.72
45247;BME280;31529;51.158;7.354;2022-12-24T01:20:13;97077.66;;;11.41;86.02
45247;BME280;31529;51.158;7.354;2022-12-24T01:20:55;97080.63;;;11.39;85.81
45247;BME280;31529;51.158;7.354;2022-12-24T01:21:26;97078.72;;;11.40;85.95
45247;BME280;31529;51.158;7.354;2022-12-24T01:21:57;97089.13;;;11.41;86.16
45247;BME280;31529;51.158;7.354;2022-12-24T01:22:28;97088.81;;;11.43;85.83
45247;BME280;31529;51.158;7.354;2022-12-24T01:23:00;97093.69;;;11.41;86.30
45247;BME280;31529;51.158;7.354;2022-12-24T01:23:31;97089.88;;;11.42;86.22
45247;BME280;31529;51.158;7.354;2022-12-24T01:24:02;97092.38;;;11.38;86.59
45247;BME280;31529;51.158;7.354;2022-12-24T01:24:33;97090.53;;;11.39;86.64
45247;BME280;31529;51.158;7.354;2022-12-24T01:25:04;97101.69;;;11.41;86.84
45247;BME280;31529;51.158;7.354;2022-12-24T01:25:36;97099.63;;;11.38;86.62
45247;BME280;31529;51.158;7.354;2022-12-24T01:26:09;97105.75;;;11.38;86.88
45247;BME280;31529;51.158;7.354;2022-12-24T01:26:42;97098.25;;;11.40;86.49
45247;BME280;31529;51.158;7.354;2022-12-24T01:27:13;97097.72;;;11.38;86.66
45247;BME280;31529;51.158;7.354;2022-12-24T01:27:44;97091.63;;;11.38;86.85
45247;BME280;31529;51.158;7.354;2022-12-24T01:28:15;97084.88;;;11.40;86.58
45247;BME280;31529;51.158;7.354;2022-12-24T01:28:46;97088.47;;;11.36;86.43
45247;BME280;31529;51.158;7.354;2022-12-24T01:29:17;97088.16;;;11.37;86.75
45247;BME280;31529;51.158;7.354;2022-12-24T01:29:49;97089.56;;;11.35;86.13
45247;BME280;31529;51.158;7.354;2022-12-24T01:30:20;97097.59;;;11.35;86.71
45247;BME280;31529;51.158;7.354;2022-12-24T01:30:51;97091.44;;;11.34;87.09
45247;BME280;31529;51.158;7.354;2022-12-24T01:31:22;97092.84;;;11.31;86.94
45247;BME280;31529;51.158;7.354;2022-12-24T01:31:53;97094.41;;;11.24;87.33
45247;BME280;31529;51.158;7.354;2022-12-24T01:32:24;97088.75;;;11.25;87.13
45247;BME280;31529;51.158;7.354;2022-12-24T01:32:55;97094.22;;;11.20;87.09
45247;BME280;31529;51.158;7.354;2022-12-24T01:33:27;96989.34;;;10.48;87.54
45247;BME280;31529;51.158;7.354;2022-12-24T01:33:59;97095.00;;;11.21;87.72
45247;BME280;31529;51.158;7.354;2022-12-24T01:34:30;97093.16;;;11.21;88.21
45247;BME280;31529;51.158;7.354;2022-12-24T01:35:01;97098.31;;;11.26;87.83
45247;BME280;31529;51.158;7.354;2022-12-24T01:35:33;97098.03;;;11.28;87.22
45247;BME280;31529;51.158;7.354;2022-12-24T01:36:04;97096.47;;;11.27;87.68
45247;BME280;31529;51.158;7.354;2022-12-24T01:36:35;97100.53;;;11.24;87.59
45247;BME280;31529;51.158;7.354;2022-12-24T01:37:06;97101.63;;;11.23;88.37
45247;BME280;31529;51.158;7.354;2022-12-24T01:37:38;97099.13;;;11.27;88.18
45247;BME280;31529;51.158;7.354;2022-12-24T01:38:09;97095.06;;;11.29;88.29
45247;BME280;31529;51.158;7.354;2022-12-24T01:38:41;97103.06;;;11.29;88.20
45247;BME280;31529;51.158;7.354;2022-12-24T01:39:12;97103.66;;;11.26;88.47
45247;BME280;31529;51.158;7.354;2022-12-24T01:39:43;97103.66;;;11.26;88.85
45247;BME280;31529;51.158;7.354;2022-12-24T01:40:15;97103.50;;;11.23;88.98
45247;BME280;31529;51.158;7.354;2022-12-24T01:41:06;97109.00;;;11.26;89.66
45247;BME280;31529;51.158;7.354;2022-12-24T01:42:01;97096.72;;;11.17;90.02
45247;BME280;31529;51.158;7.354;2022-12-24T01:42:51;97098.91;;;11.14;90.62
45247;BME280;31529;51.158;7.354;2022-12-24T01:43:41;97095.28;;;11.10;91.46
45247;BME280;31529;51.158;7.354;2022-12-24T01:44:55;97091.50;;;11.11;91.79
45247;BME280;31529;51.158;7.354;2022-12-24T01:45:48;97104.06;;;11.11;91.79
45247;BME280;31529;51.158;7.354;2022-12-24T01:46:24;97104.06;;;11.11;92.02
45247;BME280;31529;51.158;7.354;2022-12-24T01:47:51;97108.47;;;11.07;92.04
45247;BME280;31529;51.158;7.354;2022-12-24T01:49:00;97114.72;;;11.02;92.88
45247;BME280;31529;51.158;7.354;2022-12-24T01:49:34;97121.63;;;11.03;92.64
45247;BME280;31529;51.158;7.354;2022-12-24T01:50:12;97129.16;;;11.01;92.93
45247;BME280;31529;51.158;7.354;2022-12-24T01:50:48;97118.97;;;11.03;93.18
45247;BME280;31529;51.158;7.354;2022-12-24T01:51:29;97125.72;;;11.01;93.29
45247;BME280;31529;51.158;7.354;2022-12-24T01:52:12;97123.81;;;11.01;93.50
45247;BME280;31529;51.158;7.354;2022-12-24T01:52:47;97131.16;;;10.96;93.90
45247;BME280;31529;51.158;7.354;2022-12-24T01:53:19;97125.34;;;10.93;94.51
45247;BME280;31529;51.158;7.354;2022-12-24T01:53:54;97131.00;;;10.92;93.79
45247;BME280;31529;51.158;7.354;2022-12-24T01:54:30;97127.06;;;10.89;94.43
45247;BME280;31529;51.158;7.354;2022-12-24T01:55:09;97141.47;;;10.88;94.18
45247;BME280;31529;51.158;7.354;2022-12-24T01:55:46;97135.00;;;10.81;94.64
45247;BME280;31529;51.158;7.354;2022-12-24T01:56:18;97129.38;;;10.82;94.88
45247;BME280;31529;51.158;7.354;2022-12-24T01:58:03;97131.56;;;10.80;94.90
45247;BME280;31529;51.158;7.354;2022-12-24T01:58:37;97124.50;;;10.84;94.92
45247;BME280;31529;51.158;7.354;2022-12-24T01:59:14;97121.97;;;10.79;95.01
45247;BME280;31529;51.158;7.354;2022-12-24T01:59:49;97129.66;;;10.81;95.03
45247;BME280;31529;51.158;7.354;2022-12-24T02:00:23;97127.00;;;10.81;94.31
45247;BME280;31529;51.158;7.354;2022-12-24T02:00:54;97122.94;;;10.83;94.19
45247;BME280;31529;51.158;7.354;2022-12-24T02:01:25;97127.19;;;10.84;94.58
45247;BME280;31529;51.158;7.354;2022-12-24T02:01:56;97126.41;;;10.84;94.92
45247;BME280;31529;51.158;7.354;2022-12-24T02:02:28;97132.22;;;10.86;94.54
45247;BME280;31529;51.158;7.354;2022-12-24T02:03:00;97131.09;;;10.87;94.71
45247;BME280;31529;51.158;7.354;2022-12-24T02:03:31;97102.47;;;10.70;94.45
45247;BME280;31529;51.158;7.354;2022-12-24T02:04:04;97129.25;;;10.87;94.64
45247;BME280;31529;51.158;7.354;2022-12-24T02:04:45;97131.91;;;10.87;94.60
45247;BME280;31529;51.158;7.354;2022-12-24T02:05:25;97136.44;;;10.87;94.67
45247;BME280;31529;51.158;7.354;2022-12-24T02:06:05;97137.72;;;10.89;94.87
45247;BME280;31529;51.158;7.354;2022-12-24T02:06:38;97123.91;;;10.87;94.70
45247;BME280;31529;51.158;7.354;2022-12-24T02:07:09;97136.78;;;10.85;93.98
45247;BME280;31529;51.158;7.354;2022-12-24T02:07:40;97132.22;;;10.86;95.00
45247;BME280;31529;51.158;7.354;2022-12-24T02:08:12;97130.63;;;10.85;94.52
45247;BME280;31529;51.158;7.354;2022-12-24T02:08:44;97131.25;;;10.82;94.81
45247;BME280;31529;51.158;7.354;2022-12-24T02:09:15;97137.66;;;10.81;94.85
45247;BME280;31529;51.158;7.354;2022-12-24T02:09:46;97139.44;;;10.85;94.81
45247;BME280;31529;51.158;7.354;2022-12-24T02:10:21;97139.91;;;10.87;95.08
45247;BME280;31529;51.158;7.354;2022-12-24T02:10:52;97145.25;;;10.87;95.06
45247;BME280;31529;51.158;7.354;2022-12-24T02:11:24;97138.34;;;10.86;94.68
45247;BME280;31529;51.158;7.354;2022-12-24T02:11:55;97145.84;;;10.84;94.71
45247;BME280;31529;51.158;7.354;2022-12-24T02:12:27;97146.16;;;10.83;95.46
45247;BME280;31529;51.158;7.354;2022-12-24T02:13:02;97136.28;;;10.83;94.87
45247;BME280;31529;51.158;7.354;2022-12-24T02:13:34;97154.41;;;10.72;94.85
45247;BME280;31529;51.158;7.354;2022-12-24T02:14:05;97148.97;;;10.78;95.07
45247;BME280;31529;51.158;7.354;2022-12-24T02:14:36;97165.88;;;10.73;94.70
45247;BME280;31529;51.158;7.354;2022-12-24T02:15:09;97158.53;;;10.79;94.97
45247;BME280;31529;51.158;7.354;2022-12-24T02:17:30;97151.78;;;10.81;94.64
45247;BME280;31529;51.158;7.354;2022-12-24T02:22:40;97150.06;;;10.77;94.23
45247;BME280;31529;51.158;7.354;2022-12-24T02:23:33;97068.84;;;10.24;93.74
45247;BME280;31529;51.158;7.354;2022-12-24T02:29:45;97153.97;;;10.79;93.28
45247;BME280;31529;51.158;7.354;2022-12-24T02:30:20;97179.50;;;10.71;93.99
45247;BME280;31529;51.158;7.354;2022-12-24T02:30:54;97175.94;;;10.76;93.02
45247;BME280;31529;51.158;7.354;2022-12-24T02:31:42;97174.06;;;10.77;93.33
45247;BME280;31529;51.158;7.354;2022-12-24T02:33:03;97170.00;;;10.79;93.28
45247;BME280;31529;51.158;7.354;2022-12-24T02:33:37;97170.47;;;10.81;92.82
45247;BME280;31529;51.158;7.354;2022-12-24T02:34:24;97174.53;;;10.79;93.09
45247;BME280;31529;51.158;7.354;2022-12-24T02:35:04;97175.31;;;10.79;93.41
45247;BME280;31529;51.158;7.354;2022-12-24T02:35:58;97183.34;;;10.79;93.06
45247;BME280;31529;51.158;7.354;2022-12-24T02:36:37;97175.31;;;10.79;93.15
45247;BME280;31529;51.158;7.354;2022-12-24T02:37:17;97171.56;;;10.80;93.11
45247;BME280;31529;51.158;7.354;2022-12-24T02:37:59;97186.47;;;10.81;93.13
45247;BME280;31529;51.158;7.354;2022-12-24T02:38:47;97189.00;;;10.78;93.07
45247;BME280;31529;51.158;7.354;2022-12-24T02:39:32;97190.75;;;10.82;93.64
45247;BME280;31529;51.158;7.354;2022-12-24T02:40:15;97180.66;;;10.79;93.23
45247;BME280;31529;51.158;7.354;2022-12-24T02:40:49;97186.81;;;10.80;93.52
45247;BME280;31529;51.158;7.354;2022-12-24T02:41:27;97184.31;;;10.83;93.77
45247;BME280;31529;51.158;7.354;2022-12-24T02:42:24;97173.13;;;10.81;93.79
45247;BME280;31529;51.158;7.354;2022-12-24T02:43:03;97193.91;;;10.84;93.33
45247;BME280;31529;51.158;7.354;2022-12-24T02:43:43;97185.78;;;10.89;93.64
45247;BME280;31529;51.158;7.354;2022-12-24T02:44:16;97189.53;;;10.88;92.76
45247;BME280;31529;51.158;7.354;2022-12-24T02:45:04;97188.06;;;10.82;93.06
45247;BME280;31529;51.158;7.354;2022-12-24T02:45:38;97192.81;;;10.85;92.89
45247;BME280;31529;51.158;7.354;2022-12-24T02:46:15;97193.91;;;10.84;92.81
45247;BME280;31529;51.158;7.354;2022-12-24T02:46:49;97196.25;;;10.86;92.74
45247;BME280;31529;51.158;7.354;2022-12-24T02:47:22;97198.94;;;10.86;92.43
45247;BME280;31529;51.158;7.354;2022-12-24T02:47:56;97194.69;;;10.85;92.74
45247;BME280;31529;51.158;7.354;2022-12-24T02:48:28;97204.88;;;10.83;92.95
45247;BME280;31529;51.158;7.354;2022-12-24T02:49:01;97192.00;;;10.85;92.76
45247;BME280;31529;51.158;7.354;2022-12-24T02:49:34;97187.16;;;10.87;92.73
45247;BME280;31529;51.158;7.354;2022-12-24T02:50:06;97190.34;;;10.89;92.30
45247;BME280;31529;51.158;7.354;2022-12-24T02:50:39;97200.38;;;10.92;92.12
45247;BME280;31529;51.158;7.354;2022-12-24T02:51:10;97200.88;;;10.94;91.77
45247;BME280;31529;51.158;7.354;2022-12-24T02:51:42;97192.84;;;10.94;91.71
45247;BME280;31529;51.158;7.354;2022-12-24T02:52:32;97196.63;;;10.93;91.66
45247;BME280;31529;51.158;7.354;2022-12-24T02:53:11;97199.13;;;10.89;92.26
45247;BME280;31529;51.158;7.354;2022-12-24T02:53:42;97206.34;;;10.89;91.68
45247;BME280;31529;51.158;7.354;2022-12-24T02:54:13;97201.31;;;10.87;92.03
45247;BME280;31529;51.158;7.354;2022-12-24T02:54:44;97200.81;;;10.85;92.09
45247;BME280;31529;51.158;7.354;2022-12-24T02:55:25;97205.06;;;10.86;92.21
45247;BME280;31529;51.158;7.354;2022-12-24T02:57:16;97206.03;;;10.90;92.06
45247;BME280;31529;51.158;7.354;2022-12-24T02:59:58;97204.09;;;10.82;91.75
45247;BME280;31529;51.158;7.354;2022-12-24T03:00:39;97199.72;;;10.86;92.24
45247;BME280;31529;51.158;7.354;2022-12-24T03:02:46;97207.53;;;10.83;91.80
45247;BME280;31529;51.158;7.354;2022-12-24T03:04:17;97206.75;;;10.82;91.99
45247;BME280;31529;51.158;7.354;2022-12-24T03:05:17;97204.09;;;10.82;92.29
45247;BME280;31529;51.158;7.354;2022-12-24T03:05:59;97200.63;;;10.82;92.17
45247;BME280;31529;51.158;7.354;2022-12-24T03:06:43;97215.84;;;10.81;92.21
45247;BME280;31529;51.158;7.354;2022-12-24T03:08:33;97201.31;;;10.87;92.16
45247;BME280;31529;51.158;7.354;2022-12-24T03:10:08;97205.34;;;10.85;91.78
45247;BME280;31529;51.158;7.354;2022-12-24T03:11:21;97198.81;;;10.91;91.84
45247;BME280;31529;51.158;7.354;2022-12-24T03:11:55;97206.81;;;10.91;91.46
45247;BME280;31529;51.158;7.354;2022-12-24T03:12:32;97200.81;;;10.85;91.89
45247;BME280;31529;51.158;7.354;2022-12-24T03:13:09;97216.03;;;10.85;91.79
45247;BME280;31529;51.158;7.354;2022-12-24T03:13:45;97198.63;;;10.87;91.16
45247;BME280;31529;51.158;7.354;2022-12-24T03:14:17;97204.75;;;10.88;91.27
45247;BME280;31529;51.158;7.354;2022-12-24T03:14:49;97213.25;;;10.90;91.26
45247;BME280;31529;51.158;7.354;2022-12-24T03:15:22;97209.78;;;10.89;91.57
45247;BME280;31529;51.158;7.354;2022-12-24T03:15:55;97208.09;;;10.93;91.10
45247;BME280;31529;51.158;7.354;2022-12-24T03:16:26;97210.28;;;10.91;91.45
45247;BME280;31529;51.158;7.354;2022-12-24T03:16:58;97215.31;;;10.93;91.24
45247;BME280;31529;51.158;7.354;2022-12-24T03:17:33;97207.59;;;10.91;91.20
45247;BME280;31529;51.158;7.354;2022-12-24T03:18:08;97205.91;;;10.96;91.54
45247;BME280;31529;51.158;7.354;2022-12-24T03:18:43;97215.19;;;10.98;91.18
45247;BME280;31529;51.158;7.354;2022-12-24T03:19:17;97209.06;;;10.98;90.96
45247;BME280;31529;51.158;7.354;2022-12-24T03:19:50;97207.97;;;10.99;91.40
45247;BME280;31529;51.158;7.354;2022-12-24T03:20:31;97214.88;;;11.00;91.38
45247;BME280;31529;51.158;7.354;2022-12-24T03:21:08;97206.88;;;11.00;91.54
45247;BME280;31529;51.158;7.354;2022-12-24T03:21:42;97208.47;;;11.01;91.26
45247;BME280;31529;51.158;7.354;2022-12-24T03:22:16;97210.31;;;11.00;91.22
45247;BME280;31529;51.158;7.354;2022-12-24T03:22:48;97211.13;;;11.01;90.91
45247;BME280;31529;51.158;7.354;2022-12-24T03:23:19;97212.69;;;11.02;91.38